sensor_id;sensor_type;location;lat;lon;timestamp;pressure;altitude;pressure_sealevel;temperature;humidity
34742;BME280;20968;42.696;23.360;2023-02-24T00:01:26;95281.13;;;10.43;69.57
34742;BME280;20968;42.696;23.360;2023-02-24T00:03:57;95277.50;;;10.22;69.55
34742;BME280;20968;42.696;23.360;2023-02-24T00:27:06;95263.41;;;11.07;65.88
34742;BME280;20968;42.696;23.360;2023-02-24T00:29:32;95263.41;;;10.92;66.11
34742;BME280;20968;42.696;23.360;2023-02-24T00:31:58;95265.25;;;10.81;66.78
34742;BME280;20968;42.696;23.360;2023-02-24T00:34:35;95257.03;;;10.67;67.61
34742;BME280;20968;42.696;23.360;2023-02-24T00:37:02;95267.94;;;10.61;67.54
34742;BME280;20968;42.696;23.360;2023-02-24T00:39:31;95251.31;;;10.27;68.80
34742;BME280;20968;42.696;23.360;2023-02-24T00:42:00;95256.66;;;10.30;68.55
34742;BME280;20968;42.696;23.360;2023-02-24T00:44:34;95252.00;;;10.36;68.02
34742;BME280;20968;42.696;23.360;2023-02-24T00:47:01;95258.06;;;10.40;67.98
34742;BME280;20968;42.696;23.360;2023-02-24T00:49:27;95254.19;;;10.32;68.57
34742;BME280;20968;42.696;23.360;2023-02-24T00:51:53;95242.88;;;10.16;68.42
34742;BME280;20968;42.696;23.360;2023-02-24T00:54:20;95244.38;;;10.03;69.85
34742;BME280;20968;42.696;23.360;2023-02-24T00:56:47;95248.72;;;9.95;69.48
34742;BME280;20968;42.696;23.360;2023-02-24T00:59:17;95235.41;;;9.93;69.60
34742;BME280;20968;42.696;23.360;2023-02-24T01:01:43;95238.97;;;10.08;69.25
34742;BME280;20968;42.696;23.360;2023-02-24T01:04:11;95239.63;;;10.03;69.81
34742;BME280;20968;42.696;23.360;2023-02-24T01:06:42;95248.06;;;10.00;69.13
34742;BME280;20968;42.696;23.360;2023-02-24T01:09:11;95241.88;;;9.90;69.97
34742;BME280;20968;42.696;23.360;2023-02-24T01:11:37;95238.84;;;9.88;69.99
34742;BME280;20968;42.696;23.360;2023-02-24T01:14:32;95235.03;;;9.86;70.14
34742;BME280;20968;42.696;23.360;2023-02-24T01:16:58;95229.31;;;9.75;70.93
34742;BME280;20968;42.696;23.360;2023-02-24T01:19:29;95238.84;;;9.88;70.57
34742;BME280;20968;42.696;23.360;2023-02-24T01:22:03;95235.13;;;9.91;70.22
34742;BME280;20968;42.696;23.360;2023-02-24T01:24:37;95235.22;;;9.97;70.18
34742;BME280;20968;42.696;23.360;2023-02-24T01:27:03;95218.53;;;9.86;69.86
34742;BME280;20968;42.696;23.360;2023-02-24T01:29:29;95211.59;;;9.76;70.16
34742;BME280;20968;42.696;23.360;2023-02-24T01:31:55;95212.16;;;9.80;69.65
34742;BME280;20968;42.696;23.360;2023-02-24T01:34:26;95220.69;;;9.67;70.63
34742;BME280;20968;42.696;23.360;2023-02-24T01:36:52;95208.28;;;9.72;69.52
34742;BME280;20968;42.696;23.360;2023-02-24T01:39:18;95214.03;;;9.74;70.35
34742;BME280;20968;42.696;23.360;2023-02-24T01:41:46;95208.25;;;9.57;69.92
34742;BME280;20968;42.696;23.360;2023-02-24T01:46:41;95212.53;;;9.35;71.15
34742;BME280;20968;42.696;23.360;2023-02-24T01:49:23;95219.97;;;9.20;71.96
34742;BME280;20968;42.696;23.360;2023-02-24T01:54:32;95215.50;;;9.23;70.94
34742;BME280;20968;42.696;23.360;2023-02-24T01:56:59;95204.69;;;9.19;71.40
34742;BME280;20968;42.696;23.360;2023-02-24T01:59:28;95206.34;;;9.26;71.68
34742;BME280;20968;42.696;23.360;2023-02-24T02:01:57;95214.19;;;9.18;71.67
34742;BME280;20968;42.696;23.360;2023-02-24T02:04:41;95206.94;;;9.29;70.74
34742;BME280;20968;42.696;23.360;2023-02-24T02:07:10;95212.84;;;9.14;71.66
34742;BME280;20968;42.696;23.360;2023-02-24T02:09:38;95208.56;;;9.13;71.03
34742;BME280;20968;42.696;23.360;2023-02-24T02:12:06;95205.94;;;9.18;70.98
34742;BME280;20968;42.696;23.360;2023-02-24T02:14:32;95203.13;;;9.04;71.34
34742;BME280;20968;42.696;23.360;2023-02-24T02:17:11;95197.22;;;8.96;71.79
34742;BME280;20968;42.696;23.360;2023-02-24T02:42:30;95193.91;;;8.69;72.44
34742;BME280;20968;42.696;23.360;2023-02-24T02:45:21;95206.66;;;8.72;73.06
34742;BME280;20968;42.696;23.360;2023-02-24T02:50:57;95211.91;;;8.93;71.89
34742;BME280;20968;42.696;23.360;2023-02-24T02:53:51;95210.53;;;8.89;71.83
34742;BME280;20968;42.696;23.360;2023-02-24T02:56:24;95201.13;;;8.81;71.51
34742;BME280;20968;42.696;23.360;2023-02-24T02:58:55;95196.06;;;8.88;71.49
34742;BME280;20968;42.696;23.360;2023-02-24T03:01:27;95188.28;;;8.87;71.56
34742;BME280;20968;42.696;23.360;2023-02-24T03:03:55;95192.91;;;8.81;71.64
34742;BME280;20968;42.696;23.360;2023-02-24T03:06:31;95195.47;;;8.84;71.45
34742;BME280;20968;42.696;23.360;2023-02-24T03:09:07;95200.66;;;8.82;71.35
34742;BME280;20968;42.696;23.360;2023-02-24T03:11:41;95194.47;;;8.73;71.65
34742;BME280;20968;42.696;23.360;2023-02-24T03:14:11;95190.63;;;8.79;72.01
34742;BME280;20968;42.696;23.360;2023-02-24T03:16:40;95194.94;;;8.95;70.87
34742;BME280;20968;42.696;23.360;2023-02-24T03:19:12;95196.41;;;9.05;69.89
34742;BME280;20968;42.696;23.360;2023-02-24T03:21:42;95184.84;;;9.01;70.01
34742;BME280;20968;42.696;23.360;2023-02-24T03:24:12;95201.44;;;9.06;69.80
34742;BME280;20968;42.696;23.360;2023-02-24T03:26:46;95203.25;;;9.09;69.84
34742;BME280;20968;42.696;23.360;2023-02-24T03:29:25;95199.00;;;9.08;69.98
34742;BME280;20968;42.696;23.360;2023-02-24T03:31:59;95212.41;;;9.06;70.43
34742;BME280;20968;42.696;23.360;2023-02-24T03:37:03;95201.56;;;9.12;70.06
34742;BME280;20968;42.696;23.360;2023-02-24T03:39:28;95198.81;;;9.12;69.45
34742;BME280;20968;42.696;23.360;2023-02-24T03:42:02;95201.75;;;9.08;70.64
34742;BME280;20968;42.696;23.360;2023-02-24T03:44:29;95205.34;;;9.14;69.32
34742;BME280;20968;42.696;23.360;2023-02-24T03:46:54;95197.19;;;9.28;69.44
34742;BME280;20968;42.696;23.360;2023-02-24T03:49:21;95196.13;;;9.26;68.88
34742;BME280;20968;42.696;23.360;2023-02-24T03:52:20;95193.72;;;9.19;69.87
34742;BME280;20968;42.696;23.360;2023-02-24T04:03:25;95194.91;;;9.04;70.16
34742;BME280;20968;42.696;23.360;2023-02-24T04:08:33;95205.81;;;8.89;70.34
34742;BME280;20968;42.696;23.360;2023-02-24T04:11:12;95199.97;;;8.96;69.65
34742;BME280;20968;42.696;23.360;2023-02-24T04:13:48;95198.13;;;9.02;70.37
34742;BME280;20968;42.696;23.360;2023-02-24T04:16:21;95198.66;;;8.92;70.27
34742;BME280;20968;42.696;23.360;2023-02-24T04:18:56;95194.47;;;8.96;70.34
34742;BME280;20968;42.696;23.360;2023-02-24T04:21:26;95185.31;;;8.99;69.32
34742;BME280;20968;42.696;23.360;2023-02-24T04:23:53;95190.81;;;8.99;69.34
34742;BME280;20968;42.696;23.360;2023-02-24T04:26:20;95191.97;;;9.07;69.60
34742;BME280;20968;42.696;23.360;2023-02-24T04:28:46;95192.50;;;9.20;69.20
34742;BME280;20968;42.696;23.360;2023-02-24T04:31:16;95190.91;;;9.28;68.58
34742;BME280;20968;42.696;23.360;2023-02-24T04:33:46;95179.91;;;9.28;68.36
34742;BME280;20968;42.696;23.360;2023-02-24T04:36:16;95181.63;;;9.26;68.37
34742;BME280;20968;42.696;23.360;2023-02-24T04:38:41;95180.50;;;9.32;68.62
34742;BME280;20968;42.696;23.360;2023-02-24T04:41:07;95171.41;;;9.26;69.40
34742;BME280;20968;42.696;23.360;2023-02-24T04:43:32;95172.22;;;9.18;68.79
34742;BME280;20968;42.696;23.360;2023-02-24T04:45:59;95174.31;;;9.23;68.62
34742;BME280;20968;42.696;23.360;2023-02-24T04:48:32;95168.72;;;9.17;69.10
34742;BME280;20968;42.696;23.360;2023-02-24T04:50:59;95160.75;;;9.19;68.67
34742;BME280;20968;42.696;23.360;2023-02-24T04:53:27;95162.28;;;9.20;68.50
34742;BME280;20968;42.696;23.360;2023-02-24T04:55:52;95169.75;;;9.20;68.24
34742;BME280;20968;42.696;23.360;2023-02-24T04:58:20;95161.22;;;9.18;68.18
34742;BME280;20968;42.696;23.360;2023-02-24T05:00:51;95169.88;;;9.25;68.30
34742;BME280;20968;42.696;23.360;2023-02-24T05:03:25;95167.81;;;9.34;68.68
34742;BME280;20968;42.696;23.360;2023-02-24T05:05:57;95163.16;;;9.26;68.81
34742;BME280;20968;42.696;23.360;2023-02-24T05:08:25;95172.81;;;9.22;68.52
34742;BME280;20968;42.696;23.360;2023-02-24T05:10:52;95163.41;;;9.14;68.56
34742;BME280;20968;42.696;23.360;2023-02-24T05:13:20;95172.22;;;9.18;69.60
34742;BME280;20968;42.696;23.360;2023-02-24T05:15:46;95171.97;;;9.30;68.55
34742;BME280;20968;42.696;23.360;2023-02-24T05:18:15;95173.69;;;9.27;68.69
34742;BME280;20968;42.696;23.360;2023-02-24T05:20:53;95175.28;;;9.34;68.94
34742;BME280;20968;42.696;23.360;2023-02-24T05:23:40;95182.81;;;9.48;68.09
34742;BME280;20968;42.696;23.360;2023-02-24T05:26:10;95181.56;;;9.87;74.79
34742;BME280;20968;42.696;23.360;2023-02-24T05:28:37;95182.09;;;10.63;74.19
34742;BME280;20968;42.696;23.360;2023-02-24T05:31:12;95182.72;;;11.06;70.81
34742;BME280;20968;42.696;23.360;2023-02-24T05:33:40;95178.69;;;11.62;69.66
34742;BME280;20968;42.696;23.360;2023-02-24T05:36:09;95179.44;;;12.07;66.35
34742;BME280;20968;42.696;23.360;2023-02-24T05:38:37;95176.03;;;12.23;63.96
34742;BME280;20968;42.696;23.360;2023-02-24T05:41:08;95182.81;;;12.53;64.44
34742;BME280;20968;42.696;23.360;2023-02-24T05:43:44;95174.84;;;12.91;63.58
34742;BME280;20968;42.696;23.360;2023-02-24T05:46:23;95199.38;;;12.84;61.00
34742;BME280;20968;42.696;23.360;2023-02-24T05:48:56;95185.06;;;12.49;60.94
34742;BME280;20968;42.696;23.360;2023-02-24T05:51:23;95192.78;;;12.14;60.33
34742;BME280;20968;42.696;23.360;2023-02-24T05:53:50;95186.06;;;11.95;61.25
34742;BME280;20968;42.696;23.360;2023-02-24T05:56:20;95188.81;;;11.50;62.62
34742;BME280;20968;42.696;23.360;2023-02-24T05:58:46;95190.84;;;11.35;62.99
34742;BME280;20968;42.696;23.360;2023-02-24T06:01:12;95186.47;;;11.23;63.00
34742;BME280;20968;42.696;23.360;2023-02-24T06:03:44;95187.19;;;10.84;64.42
34742;BME280;20968;42.696;23.360;2023-02-24T06:06:18;95199.16;;;10.81;64.53
34742;BME280;20968;42.696;23.360;2023-02-24T06:08:44;95192.50;;;10.73;64.38
34742;BME280;20968;42.696;23.360;2023-02-24T06:11:16;95189.91;;;10.35;66.17
34742;BME280;20968;42.696;23.360;2023-02-24T06:13:45;95202.84;;;10.29;66.50
34742;BME280;20968;42.696;23.360;2023-02-24T06:16:16;95211.94;;;10.35;65.86
34742;BME280;20968;42.696;23.360;2023-02-24T06:18:43;95199.03;;;10.27;66.68
34742;BME280;20968;42.696;23.360;2023-02-24T06:21:11;95211.84;;;10.15;66.81
34742;BME280;20968;42.696;23.360;2023-02-24T06:23:40;95201.81;;;9.98;67.68
34742;BME280;20968;42.696;23.360;2023-02-24T06:26:06;95206.19;;;9.81;68.44
34742;BME280;20968;42.696;23.360;2023-02-24T06:28:39;95201.25;;;9.71;69.23
34742;BME280;20968;42.696;23.360;2023-02-24T06:31:08;95206.38;;;9.78;69.80
34742;BME280;20968;42.696;23.360;2023-02-24T06:33:35;95208.88;;;9.90;68.87
34742;BME280;20968;42.696;23.360;2023-02-24T06:36:02;95209.56;;;10.00;68.50
34742;BME280;20968;42.696;23.360;2023-02-24T06:38:29;95202.06;;;10.00;68.25
34742;BME280;20968;42.696;23.360;2023-02-24T06:40:58;95206.63;;;10.03;68.34
34742;BME280;20968;42.696;23.360;2023-02-24T06:43:24;95197.00;;;9.84;68.35
34742;BME280;20968;42.696;23.360;2023-02-24T06:45:50;95191.69;;;9.66;68.44
34742;BME280;20968;42.696;23.360;2023-02-24T06:48:15;95199.56;;;9.88;68.92
34742;BME280;20968;42.696;23.360;2023-02-24T06:50:41;95205.06;;;9.88;68.86
34742;BME280;20968;42.696;23.360;2023-02-24T06:53:07;95192.94;;;9.94;68.62
34742;BME280;20968;42.696;23.360;2023-02-24T06:55:41;95193.50;;;9.84;69.00
34742;BME280;20968;42.696;23.360;2023-02-24T06:58:14;95195.72;;;9.56;69.34
34742;BME280;20968;42.696;23.360;2023-02-24T07:00:40;95183.63;;;9.63;69.79
34742;BME280;20968;42.696;23.360;2023-02-24T07:03:15;95180.19;;;9.68;69.87
34742;BME280;20968;42.696;23.360;2023-02-24T07:05:48;95180.38;;;9.64;69.86
34742;BME280;20968;42.696;23.360;2023-02-24T07:08:36;95191.69;;;9.81;68.89
34742;BME280;20968;42.696;23.360;2023-02-24T07:11:02;95182.19;;;9.82;68.75
34742;BME280;20968;42.696;23.360;2023-02-24T07:13:31;95181.16;;;9.79;69.31
34742;BME280;20968;42.696;23.360;2023-02-24T07:15:58;95187.63;;;9.91;69.38
34742;BME280;20968;42.696;23.360;2023-02-24T07:18:28;95186.88;;;9.90;68.92
34742;BME280;20968;42.696;23.360;2023-02-24T07:20:55;95174.47;;;9.95;68.70
34742;BME280;20968;42.696;23.360;2023-02-24T07:23:29;95167.72;;;10.10;68.98
34742;BME280;20968;42.696;23.360;2023-02-24T07:25:56;95160.91;;;10.06;68.39
34742;BME280;20968;42.696;23.360;2023-02-24T07:28:23;95160.13;;;10.19;67.98
34742;BME280;20968;42.696;23.360;2023-02-24T07:30:49;95158.91;;;10.20;67.94
34742;BME280;20968;42.696;23.360;2023-02-24T07:33:17;95166.56;;;10.45;74.64
34742;BME280;20968;42.696;23.360;2023-02-24T07:35:49;95173.25;;;11.27;74.07
34742;BME280;20968;42.696;23.360;2023-02-24T07:38:15;95170.69;;;11.44;67.28
34742;BME280;20968;42.696;23.360;2023-02-24T07:40:41;95159.19;;;11.25;64.86
34742;BME280;20968;42.696;23.360;2023-02-24T07:43:07;95164.66;;;11.05;65.84
34742;BME280;20968;42.696;23.360;2023-02-24T07:45:32;95154.34;;;11.20;69.04
34742;BME280;20968;42.696;23.360;2023-02-24T07:47:58;95167.78;;;11.98;69.74
34742;BME280;20968;42.696;23.360;2023-02-24T07:50:25;95170.75;;;12.50;67.72
34742;BME280;20968;42.696;23.360;2023-02-24T07:52:52;95170.84;;;12.61;64.77
34742;BME280;20968;42.696;23.360;2023-02-24T07:55:18;95174.97;;;12.77;59.30
34742;BME280;20968;42.696;23.360;2023-02-24T07:57:46;95182.25;;;12.43;60.03
34742;BME280;20968;42.696;23.360;2023-02-24T08:00:14;95187.81;;;12.18;60.26
34742;BME280;20968;42.696;23.360;2023-02-24T08:02:48;95174.75;;;11.93;61.19
34742;BME280;20968;42.696;23.360;2023-02-24T08:05:15;95158.91;;;11.63;61.24
34742;BME280;20968;42.696;23.360;2023-02-24T08:07:43;95149.03;;;11.37;62.45
34742;BME280;20968;42.696;23.360;2023-02-24T08:10:12;95150.22;;;11.30;62.67
34742;BME280;20968;42.696;23.360;2023-02-24T08:12:48;95147.53;;;11.36;62.95
34742;BME280;20968;42.696;23.360;2023-02-24T08:15:16;95159.50;;;11.13;63.61
34742;BME280;20968;42.696;23.360;2023-02-24T08:17:46;95149.38;;;10.84;63.85
34742;BME280;20968;42.696;23.360;2023-02-24T08:20:11;95144.50;;;10.60;65.38
34742;BME280;20968;42.696;23.360;2023-02-24T08:22:38;95142.66;;;10.37;65.72
34742;BME280;20968;42.696;23.360;2023-02-24T08:25:08;95137.34;;;10.33;66.22
34742;BME280;20968;42.696;23.360;2023-02-24T08:27:36;95143.22;;;10.41;65.82
34742;BME280;20968;42.696;23.360;2023-02-24T08:30:04;95142.19;;;10.38;66.02
34742;BME280;20968;42.696;23.360;2023-02-24T08:32:40;95134.31;;;10.31;66.82
34742;BME280;20968;42.696;23.360;2023-02-24T08:35:13;95138.47;;;10.41;66.47
34742;BME280;20968;42.696;23.360;2023-02-24T08:37:48;95141.50;;;10.43;66.72
34742;BME280;20968;42.696;23.360;2023-02-24T08:40:20;95142.69;;;10.22;66.97
34742;BME280;20968;42.696;23.360;2023-02-24T08:48:14;95125.38;;;10.36;67.62
34742;BME280;20968;42.696;23.360;2023-02-24T08:50:54;95130.66;;;10.54;66.77
34742;BME280;20968;42.696;23.360;2023-02-24T08:53:20;95134.53;;;10.62;66.31
34742;BME280;20968;42.696;23.360;2023-02-24T08:55:47;95133.47;;;10.60;66.21
34742;BME280;20968;42.696;23.360;2023-02-24T08:58:20;95135.50;;;10.79;65.90
34742;BME280;20968;42.696;23.360;2023-02-24T09:00:52;95126.16;;;10.91;65.52
34742;BME280;20968;42.696;23.360;2023-02-24T09:03:21;95133.66;;;10.90;65.55
34742;BME280;20968;42.696;23.360;2023-02-24T09:06:12;95124.09;;;10.86;65.46
34742;BME280;20968;42.696;23.360;2023-02-24T09:08:43;95135.19;;;10.91;64.86
34742;BME280;20968;42.696;23.360;2023-02-24T09:11:13;95128.72;;;11.14;64.17
34742;BME280;20968;42.696;23.360;2023-02-24T09:13:44;95131.81;;;11.22;63.97
34742;BME280;20968;42.696;23.360;2023-02-24T09:16:20;95137.72;;;11.35;63.27
34742;BME280;20968;42.696;23.360;2023-02-24T09:18:48;95125.78;;;11.43;63.98
34742;BME280;20968;42.696;23.360;2023-02-24T09:21:33;95113.91;;;11.52;63.43
34742;BME280;20968;42.696;23.360;2023-02-24T09:24:15;95123.94;;;11.55;63.68
34742;BME280;20968;42.696;23.360;2023-02-24T09:26:52;95123.09;;;11.68;62.51
34742;BME280;20968;42.696;23.360;2023-02-24T09:29:27;95121.47;;;11.82;61.59
34742;BME280;20968;42.696;23.360;2023-02-24T09:32:04;95127.16;;;11.98;62.31
34742;BME280;20968;42.696;23.360;2023-02-24T09:34:35;95122.88;;;11.97;61.19
34742;BME280;20968;42.696;23.360;2023-02-24T09:37:01;95123.19;;;12.05;61.40
34742;BME280;20968;42.696;23.360;2023-02-24T09:39:31;95125.25;;;12.10;61.62
34742;BME280;20968;42.696;23.360;2023-02-24T09:42:23;95116.03;;;12.18;60.66
34742;BME280;20968;42.696;23.360;2023-02-24T09:44:55;95126.53;;;12.45;60.67
34742;BME280;20968;42.696;23.360;2023-02-24T09:47:26;95123.31;;;12.52;60.13
34742;BME280;20968;42.696;23.360;2023-02-24T09:52:45;95108.91;;;12.79;58.77
34742;BME280;20968;42.696;23.360;2023-02-24T09:55:21;95109.66;;;12.74;59.24
34742;BME280;20968;42.696;23.360;2023-02-24T10:03:15;95103.50;;;12.95;57.62
34742;BME280;20968;42.696;23.360;2023-02-24T10:06:04;95092.22;;;12.93;57.78
34742;BME280;20968;42.696;23.360;2023-02-24T10:08:43;95091.38;;;12.82;58.07
34742;BME280;20968;42.696;23.360;2023-02-24T10:11:11;95090.59;;;12.81;58.03
34742;BME280;20968;42.696;23.360;2023-02-24T10:13:53;95086.91;;;12.90;58.09
34742;BME280;20968;42.696;23.360;2023-02-24T10:16:23;95095.00;;;13.04;57.47
34742;BME280;20968;42.696;23.360;2023-02-24T10:19:02;95072.13;;;12.98;58.40
34742;BME280;20968;42.696;23.360;2023-02-24T10:24:48;95056.75;;;12.92;58.13
34742;BME280;20968;42.696;23.360;2023-02-24T10:31:02;95048.28;;;12.59;59.18
34742;BME280;20968;42.696;23.360;2023-02-24T10:33:37;95041.28;;;12.63;58.44
34742;BME280;20968;42.696;23.360;2023-02-24T10:36:14;95038.88;;;12.87;58.64
34742;BME280;20968;42.696;23.360;2023-02-24T10:38:43;95056.38;;;13.21;57.36
34742;BME280;20968;42.696;23.360;2023-02-24T10:41:15;95040.63;;;13.59;57.40
34742;BME280;20968;42.696;23.360;2023-02-24T10:43:52;95031.09;;;13.93;57.37
34742;BME280;20968;42.696;23.360;2023-02-24T10:48:57;95023.78;;;14.45;55.38
34742;BME280;20968;42.696;23.360;2023-02-24T10:51:37;95027.00;;;14.60;54.43
34742;BME280;20968;42.696;23.360;2023-02-24T10:54:25;95017.16;;;14.80;54.07
34742;BME280;20968;42.696;23.360;2023-02-24T10:57:20;95003.94;;;15.03;53.71
34742;BME280;20968;42.696;23.360;2023-02-24T11:00:05;95006.84;;;15.32;52.54
34742;BME280;20968;42.696;23.360;2023-02-24T11:02:51;94996.75;;;15.29;52.56
34742;BME280;20968;42.696;23.360;2023-02-24T11:05:41;94998.91;;;15.53;51.96
34742;BME280;20968;42.696;23.360;2023-02-24T11:08:26;94985.81;;;15.48;51.47
34742;BME280;20968;42.696;23.360;2023-02-24T11:11:06;94988.22;;;15.67;51.29
34742;BME280;20968;42.696;23.360;2023-02-24T11:13:48;94981.41;;;15.63;50.91
34742;BME280;20968;42.696;23.360;2023-02-24T11:16:41;94968.06;;;15.91;50.43
34742;BME280;20968;42.696;23.360;2023-02-24T11:19:28;94966.16;;;16.10;50.21
34742;BME280;20968;42.696;23.360;2023-02-24T11:21:55;94972.53;;;16.29;50.15
34742;BME280;20968;42.696;23.360;2023-02-24T11:24:21;94964.50;;;16.20;49.52
34742;BME280;20968;42.696;23.360;2023-02-24T11:26:47;94962.94;;;16.53;49.25
34742;BME280;20968;42.696;23.360;2023-02-24T11:34:53;94951.78;;;17.19;47.28
34742;BME280;20968;42.696;23.360;2023-02-24T11:37:42;94942.72;;;17.13;46.56
34742;BME280;20968;42.696;23.360;2023-02-24T11:40:31;94938.97;;;17.11;47.74
34742;BME280;20968;42.696;23.360;2023-02-24T11:43:04;94930.50;;;17.40;46.66
34742;BME280;20968;42.696;23.360;2023-02-24T11:45:38;94927.31;;;17.49;46.68
34742;BME280;20968;42.696;23.360;2023-02-24T11:48:16;94913.91;;;17.48;47.29
34742;BME280;20968;42.696;23.360;2023-02-24T11:50:46;94913.25;;;17.42;47.07
34742;BME280;20968;42.696;23.360;2023-02-24T11:56:09;94890.22;;;17.23;47.47
34742;BME280;20968;42.696;23.360;2023-02-24T12:01:47;94885.69;;;17.70;46.38
34742;BME280;20968;42.696;23.360;2023-02-24T12:07:00;94868.88;;;17.31;47.38
34742;BME280;20968;42.696;23.360;2023-02-24T12:09:31;94862.56;;;17.12;47.65
34742;BME280;20968;42.696;23.360;2023-02-24T12:14:38;94869.34;;;16.61;48.17
34742;BME280;20968;42.696;23.360;2023-02-24T12:17:18;94868.78;;;16.44;48.70
34742;BME280;20968;42.696;23.360;2023-02-24T12:22:52;94861.59;;;16.54;55.76
34742;BME280;20968;42.696;23.360;2023-02-24T12:25:25;94859.78;;;16.75;52.13
34742;BME280;20968;42.696;23.360;2023-02-24T12:28:13;94849.69;;;16.91;49.15
34742;BME280;20968;42.696;23.360;2023-02-24T12:39:20;94834.66;;;17.17;48.21
34742;BME280;20968;42.696;23.360;2023-02-24T12:47:11;94840.75;;;17.16;47.38
34742;BME280;20968;42.696;23.360;2023-02-24T12:49:56;94841.06;;;16.94;48.46
34742;BME280;20968;42.696;23.360;2023-02-24T12:52:51;94844.97;;;16.86;48.42
34742;BME280;20968;42.696;23.360;2023-02-24T12:55:32;94846.19;;;16.72;48.90
34742;BME280;20968;42.696;23.360;2023-02-24T12:58:17;94841.66;;;16.50;49.26
34742;BME280;20968;42.696;23.360;2023-02-24T13:03:38;94832.81;;;16.28;51.93
34742;BME280;20968;42.696;23.360;2023-02-24T13:06:43;94823.56;;;16.20;52.55
34742;BME280;20968;42.696;23.360;2023-02-24T13:09:47;94815.66;;;16.06;53.23
34742;BME280;20968;42.696;23.360;2023-02-24T13:13:26;94810.16;;;16.00;54.11
34742;BME280;20968;42.696;23.360;2023-02-24T13:15:24;94811.38;;;16.05;54.25
34742;BME280;20968;42.696;23.360;2023-02-24T13:17:52;94807.94;;;16.17;54.25
34742;BME280;20968;42.696;23.360;2023-02-24T13:20:33;94804.84;;;16.44;54.26
34742;BME280;20968;42.696;23.360;2023-02-24T13:23:00;94801.53;;;16.64;54.27
34742;BME280;20968;42.696;23.360;2023-02-24T13:25:36;94804.69;;;16.55;54.07
34742;BME280;20968;42.696;23.360;2023-02-24T13:28:05;94802.38;;;16.41;54.00
34742;BME280;20968;42.696;23.360;2023-02-24T13:30:55;94798.22;;;16.29;54.05
34742;BME280;20968;42.696;23.360;2023-02-24T13:33:27;94796.28;;;16.19;54.22
34742;BME280;20968;42.696;23.360;2023-02-24T13:39:03;94795.22;;;16.03;55.63
34742;BME280;20968;42.696;23.360;2023-02-24T13:44:22;94795.53;;;15.76;57.29
34742;BME280;20968;42.696;23.360;2023-02-24T13:49:54;94793.44;;;15.58;59.03
34742;BME280;20968;42.696;23.360;2023-02-24T13:53:08;94797.38;;;15.44;59.49
34742;BME280;20968;42.696;23.360;2023-02-24T13:56:09;94793.66;;;15.36;60.51
34742;BME280;20968;42.696;23.360;2023-02-24T14:01:26;94784.69;;;15.19;60.60
34742;BME280;20968;42.696;23.360;2023-02-24T14:06:46;94794.72;;;14.98;60.61
34742;BME280;20968;42.696;23.360;2023-02-24T14:09:16;94787.38;;;15.01;61.00
34742;BME280;20968;42.696;23.360;2023-02-24T14:11:42;94793.19;;;14.97;61.76
34742;BME280;20968;42.696;23.360;2023-02-24T14:14:15;94776.34;;;14.95;61.96
34742;BME280;20968;42.696;23.360;2023-02-24T14:16:43;94781.44;;;14.86;62.23
34742;BME280;20968;42.696;23.360;2023-02-24T14:19:14;94782.22;;;14.86;62.48
34742;BME280;20968;42.696;23.360;2023-02-24T14:21:50;94780.22;;;14.81;62.63
34742;BME280;20968;42.696;23.360;2023-02-24T14:24:16;94786.84;;;14.73;62.58
34742;BME280;20968;42.696;23.360;2023-02-24T14:26:49;94787.81;;;14.76;62.74
34742;BME280;20968;42.696;23.360;2023-02-24T14:29:18;94795.66;;;14.72;62.65
34742;BME280;20968;42.696;23.360;2023-02-24T14:31:50;94789.38;;;14.66;62.87
34742;BME280;20968;42.696;23.360;2023-02-24T14:34:19;94782.69;;;14.50;62.58
34742;BME280;20968;42.696;23.360;2023-02-24T14:36:46;94784.94;;;14.52;63.27
34742;BME280;20968;42.696;23.360;2023-02-24T14:39:17;94785.75;;;14.47;63.41
34742;BME280;20968;42.696;23.360;2023-02-24T14:41:44;94786.00;;;14.43;62.43
34742;BME280;20968;42.696;23.360;2023-02-24T14:44:23;94794.09;;;14.36;62.68
34742;BME280;20968;42.696;23.360;2023-02-24T14:46:51;94790.41;;;14.22;62.83
34742;BME280;20968;42.696;23.360;2023-02-24T14:49:20;94779.59;;;14.19;63.18
34742;BME280;20968;42.696;23.360;2023-02-24T14:51:49;94766.78;;;14.16;63.44
34742;BME280;20968;42.696;23.360;2023-02-24T14:54:20;94768.81;;;14.15;62.72
34742;BME280;20968;42.696;23.360;2023-02-24T14:56:47;94767.28;;;14.20;63.36
34742;BME280;20968;42.696;23.360;2023-02-24T14:59:26;94780.03;;;14.34;63.14
34742;BME280;20968;42.696;23.360;2023-02-24T15:01:55;94774.75;;;14.30;62.19
34742;BME280;20968;42.696;23.360;2023-02-24T15:06:46;94779.75;;;14.37;62.51
34742;BME280;20968;42.696;23.360;2023-02-24T15:09:28;94776.47;;;14.39;62.58
34742;BME280;20968;42.696;23.360;2023-02-24T15:11:57;94771.66;;;14.39;62.36
34742;BME280;20968;42.696;23.360;2023-02-24T15:14:26;94765.84;;;14.43;61.79
34742;BME280;20968;42.696;23.360;2023-02-24T15:17:02;94770.88;;;14.50;62.02
34742;BME280;20968;42.696;23.360;2023-02-24T15:19:38;94768.13;;;14.44;61.32
34742;BME280;20968;42.696;23.360;2023-02-24T15:22:27;94764.38;;;14.42;61.16
34742;BME280;20968;42.696;23.360;2023-02-24T15:27:51;94764.59;;;14.44;61.44
34742;BME280;20968;42.696;23.360;2023-02-24T15:35:27;94760.06;;;14.46;61.25
34742;BME280;20968;42.696;23.360;2023-02-24T15:37:54;94759.31;;;14.46;61.43
34742;BME280;20968;42.696;23.360;2023-02-24T15:40:22;94755.72;;;14.51;61.61
34742;BME280;20968;42.696;23.360;2023-02-24T15:42:51;94759.78;;;14.50;61.80
34742;BME280;20968;42.696;23.360;2023-02-24T15:47:57;94744.97;;;14.42;62.03
34742;BME280;20968;42.696;23.360;2023-02-24T15:50:23;94750.28;;;14.40;62.33
34742;BME280;20968;42.696;23.360;2023-02-24T15:52:49;94755.28;;;14.41;61.95